Time;durP1;ratioP1;P1;durP2;ratioP2;P2;SDS_P1;SDS_P2;PMS_P1;PMS_P2;Temp;Humidity;BMP_temperature;BMP_pressure;BME280_temperature;BME280_humidity;BME280_pressure;Samples;Min_cycle;Max_cycle;Signal;HPM_P1;HPM_P2
2022/08/03 12:44:53;;;;;;;0.00;0.00;;;27.90;91.20;;;23.55;70.77;101009.34;4196644;28;20378;-70
2022/08/03 12:46:57;;;;;;;0.00;0.00;;;26.00;92.60;;;23.33;73.82;101008.25;4181803;28;20044;-63
2022/08/03 12:49:13;;;;;;;0.00;0.00;;;25.40;95.90;;;22.93;72.72;101008.09;4181959;28;20037;-68
2022/08/03 12:51:14;;;;;;;8.80;1.30;;;24.40;94.60;;;22.59;74.38;101005.03;4182082;28;20033;-67
2022/08/03 12:53:28;;;;;;;1.80;1.25;;;23.80;95.50;;;22.42;74.77;101008.56;4181673;28;20031;-67
2022/08/03 12:55:33;;;;;;;3.88;1.40;;;23.30;96.00;;;22.33;74.99;101007.25;4182052;28;20447;-67
2022/08/03 12:57:42;;;;;;;4.40;1.35;;;23.10;96.40;;;22.22;75.15;100986.50;4179796;28;20083;-71
2022/08/03 12:59:47;;;;;;;7.57;1.77;;;22.90;96.60;;;22.24;74.71;100996.00;4178317;28;20523;-70
2022/08/03 13:01:47;;;;;;;4.00;0.95;;;22.80;96.70;;;22.26;74.54;101001.94;4123523;28;20049;-69
2022/08/03 13:03:51;;;;;;;3.15;1.20;;;22.80;96.70;;;22.25;74.01;100996.81;4148821;28;20042;-69
2022/08/03 13:05:52;;;;;;;3.13;0.88;;;22.80;96.60;;;22.24;73.89;100987.09;4014966;28;77701;-69
2022/08/03 13:07:53;;;;;;;3.13;1.10;;;22.70;96.50;;;22.21;72.82;100985.69;4102595;28;20042;-69
2022/08/03 13:09:55;;;;;;;2.05;1.02;;;22.70;96.30;;;22.19;72.78;100984.28;4151840;28;20040;-68
2022/08/03 13:12:13;;;;;;;2.88;1.10;;;22.70;96.40;;;22.23;72.56;100988.13;4165214;28;20481;-69
2022/08/03 13:14:14;;;;;;;1.40;1.02;;;22.70;96.30;;;22.24;72.27;100987.09;4163853;28;20113;-67
2022/08/03 13:16:15;;;;;;;2.35;1.17;;;22.70;96.30;;;22.23;72.14;100974.69;4164890;28;20085;-68
2022/08/03 13:18:16;;;;;;;3.72;0.98;;;22.70;96.50;;;22.23;72.11;100974.69;4164799;28;20029;-69
2022/08/03 13:20:17;;;;;;;2.70;1.30;;;22.70;96.20;;;22.21;72.27;100968.75;4164482;28;20037;-69
2022/08/03 13:22:24;;;;;;;2.67;1.10;;;22.70;96.30;;;22.24;71.97;100973.66;4164787;28;20026;-69
2022/08/03 13:24:25;;;;;;;3.38;0.90;;;22.70;96.30;;;22.25;72.17;100978.00;4150799;28;20026;-69
2022/08/03 13:29:08;;;;;;;6.78;1.60;;;22.80;97.30;;;22.76;75.35;100980.22;4197842;28;20379;-58
2022/08/03 13:31:09;;;;;;;11.90;1.70;;;23.10;98.30;;;24.30;69.42;100979.72;4181436;28;20086;-62
2022/08/03 13:33:10;;;;;;;2.83;1.10;;;24.20;97.50;;;24.40;66.26;100978.00;4181817;28;20223;-63
2022/08/03 13:35:11;;;;;;;4.68;1.00;;;25.10;94.40;;;24.05;65.50;100975.41;4180548;28;20033;-68
2022/08/03 13:37:12;;;;;;;2.30;0.85;;;25.30;93.20;;;23.24;68.98;100970.09;4178360;28;20025;-68
2022/08/03 13:39:13;;;;;;;4.70;1.23;;;24.20;94.50;;;22.96;70.69;100968.09;4182220;28;20021;-67
2022/08/03 13:41:14;;;;;;;3.53;0.88;;;23.80;95.30;;;22.71;70.93;100967.44;4182093;28;20068;-68
2022/08/03 13:43:15;;;;;;;21.27;2.72;;;23.40;95.60;;;22.62;72.16;100968.78;4182067;28;20025;-70
2022/08/03 13:45:16;;;;;;;6.85;1.42;;;23.10;96.30;;;22.66;71.83;100964.63;4181489;28;20025;-74
2022/08/03 13:47:17;;;;;;;12.13;1.60;;;23.10;96.30;;;22.80;70.74;100968.75;4168726;28;20075;-75
2022/08/03 13:49:18;;;;;;;20.98;2.17;;;23.20;96.00;;;22.72;71.28;100961.03;4181556;28;20029;-66
2022/08/03 13:51:19;;;;;;;6.55;1.50;;;23.10;96.20;;;22.54;71.96;100953.81;4181838;28;20025;-67
2022/08/03 13:53:20;;;;;;;8.45;1.48;;;22.90;96.30;;;22.67;71.70;100952.00;4181993;28;20396;-64
2022/08/03 13:55:21;;;;;;;3.53;1.40;;;23.00;96.30;;;22.52;72.22;100947.00;4179051;28;20112;-65
2022/08/03 13:57:22;;;;;;;7.05;1.92;;;22.90;96.50;;;22.49;72.69;100955.56;4183561;28;20044;-63
2022/08/03 13:59:24;;;;;;;7.88;1.35;;;22.90;96.60;;;22.48;72.68;100945.84;4188374;28;20022;-64
2022/08/03 14:01:25;;;;;;;7.50;1.35;;;22.80;96.70;;;22.49;71.86;100947.47;3994927;28;20041;-65
2022/08/03 14:03:26;;;;;;;3.72;1.15;;;22.80;96.50;;;22.51;71.48;100945.38;4164082;28;20036;-64
2022/08/03 14:05:27;;;;;;;3.17;0.98;;;22.80;96.40;;;22.55;70.46;100939.28;4181103;28;20029;-64
2022/08/03 14:07:28;;;;;;;5.57;1.10;;;22.80;96.10;;;22.50;71.04;100935.66;4180911;28;20032;-64
2022/08/03 14:09:28;;;;;;;3.97;1.00;;;22.80;96.30;;;22.45;70.90;100938.22;4180958;28;20029;-63
2022/08/03 14:11:30;;;;;;;29.35;27.70;;;22.70;96.20;;;22.46;70.56;100939.88;4180717;28;20444;-64
2022/08/03 14:13:31;;;;;;;1.67;1.10;;;22.70;96.10;;;22.44;70.44;100944.63;4180735;28;20037;-64
2022/08/03 14:15:32;;;;;;;7.25;1.13;;;22.70;96.10;;;22.63;70.87;100942.72;4181278;28;20397;-70
2022/08/03 14:17:33;;;;;;;0.45;0.45;;;22.90;96.20;;;22.60;69.26;100935.94;4163519;28;20051;-62
2022/08/03 14:19:34;;;;;;;3.72;0.60;;;22.90;95.70;;;22.60;69.66;100941.31;4180613;28;20033;-62
2022/08/03 14:21:35;;;;;;;2.88;0.70;;;22.90;95.80;;;22.56;69.54;100940.94;4180473;28;20033;-60
2022/08/03 14:23:37;;;;;;;1.35;0.77;;;22.90;95.80;;;22.54;68.93;100942.22;4172486;28;20052;-62
2022/08/03 14:25:40;;;;;;;2.85;0.90;;;22.80;95.80;;;22.52;68.88;100939.75;4175927;28;20112;-62
2022/08/03 14:27:41;;;;;;;1.88;0.77;;;22.80;95.60;;;22.53;68.27;100930.66;4180692;28;20045;-61
2022/08/03 14:29:41;;;;;;;2.47;0.90;;;22.80;95.30;;;22.53;67.62;100924.44;4180275;28;20033;-62
2022/08/03 14:31:42;;;;;;;3.10;0.68;;;22.80;95.10;;;22.52;67.66;100923.63;4180583;28;20082;-61
2022/08/03 14:33:43;;;;;;;5.40;0.77;;;22.80;95.20;;;22.52;67.36;100929.00;4180923;28;20025;-62
2022/08/03 14:35:44;;;;;;;4.35;0.70;;;22.80;95.10;;;22.52;67.17;100930.88;4154266;28;20049;-62
2022/08/03 14:37:45;;;;;;;1.60;0.60;;;22.80;95.00;;;22.50;67.09;100919.53;4180640;28;20151;-63
2022/08/03 14:39:47;;;;;;;1.98;0.85;;;22.80;95.20;;;22.54;66.39;100915.34;4173271;28;20025;-61
2022/08/03 14:41:48;;;;;;;4.15;0.90;;;22.80;94.70;;;22.55;66.60;100914.28;4169487;28;20029;-61
2022/08/03 14:43:49;;;;;;;2.90;0.82;;;22.80;94.80;;;22.54;66.26;100909.97;4169144;28;20443;-61
2022/08/03 14:45:52;;;;;;;1.70;0.70;;;22.80;94.70;;;22.55;65.33;100912.41;4169719;28;20026;-61
2022/08/03 14:47:53;;;;;;;1.17;0.63;;;22.80;94.30;;;22.55;65.20;100916.97;4169633;28;20029;-61
2022/08/03 14:49:54;;;;;;;1.20;0.80;;;22.80;94.30;;;22.56;64.84;100915.91;4170412;28;20083;-61
2022/08/03 14:51:55;;;;;;;1.27;0.80;;;22.80;94.40;;;22.55;64.71;100907.03;4166304;28;20014;-61
2022/08/03 14:53:55;;;;;;;1.63;0.65;;;22.80;94.10;;;22.56;64.59;100913.22;4169538;28;20500;-64
2022/08/03 14:55:57;;;;;;;9.80;1.67;;;22.80;94.10;;;22.48;65.67;100910.88;4169267;28;20072;-62
2022/08/03 14:57:58;;;;;;;2.03;0.70;;;22.80;94.40;;;22.38;66.22;100905.22;4172885;28;20020;-60
2022/08/03 14:59:59;;;;;;;4.72;0.60;;;22.70;94.50;;;22.31;67.33;100899.16;4171567;28;20029;-60
2022/08/03 15:02:00;;;;;;;7.93;0.98;;;22.60;95.00;;;22.26;67.71;100891.75;4122431;28;20052;-60
2022/08/03 15:04:01;;;;;;;1.63;0.70;;;22.60;95.10;;;22.24;67.88;100893.03;4168499;28;20033;-60
2022/08/03 15:06:02;;;;;;;4.82;1.50;;;22.60;95.10;;;22.22;68.78;100895.16;4168552;28;20029;-60
2022/08/03 15:08:03;;;;;;;1.98;0.63;;;22.50;95.40;;;22.22;69.12;100904.00;4169152;28;20026;-61
2022/08/03 15:10:05;;;;;;;1.92;1.02;;;22.50;95.60;;;22.21;69.58;100902.38;4169288;28;20044;-60
2022/08/03 15:12:06;;;;;;;3.50;0.85;;;22.50;95.80;;;22.20;70.17;100897.22;4168820;28;20029;-61
2022/08/03 15:14:07;;;;;;;2.80;0.73;;;22.50;96.00;;;22.17;70.15;100892.31;4168766;28;20592;-61
2022/08/03 15:16:08;;;;;;;4.35;0.70;;;22.40;95.90;;;22.16;70.64;100893.38;4168957;28;20025;-62
2022/08/03 15:18:09;;;;;;;1.58;0.70;;;22.40;96.10;;;22.14;70.67;100888.22;4167412;28;20037;-62
2022/08/03 15:20:10;;;;;;;2.13;0.60;;;22.40;96.10;;;22.13;70.77;100883.91;4159526;28;20033;-61
2022/08/03 15:22:14;;;;;;;1.73;0.55;;;22.40;96.10;;;22.14;71.34;100890.06;4168771;28;20036;-61
2022/08/03 15:24:15;;;;;;;2.67;0.50;;;22.40;96.20;;;22.10;71.78;100886.22;4168466;28;20061;-61
2022/08/03 15:26:16;;;;;;;2.45;0.60;;;22.40;96.50;;;22.12;71.60;100890.31;4168789;28;20091;-61
2022/08/03 15:28:16;;;;;;;1.85;0.70;;;22.40;96.40;;;22.11;71.83;100887.84;4168184;28;20083;-61
2022/08/03 15:30:17;;;;;;;1.10;0.70;;;22.40;96.50;;;22.13;71.92;100888.44;4168940;28;20048;-61
2022/08/03 15:32:18;;;;;;;2.83;0.60;;;22.40;96.50;;;22.13;72.03;100877.72;4168726;28;20064;-60
2022/08/03 15:34:19;;;;;;;2.47;0.65;;;22.40;96.50;;;22.11;72.25;100883.28;4168550;28;20030;-61
2022/08/03 15:36:20;;;;;;;1.00;0.52;;;22.40;96.60;;;22.12;72.34;100878.75;4168677;28;20057;-62
2022/08/03 15:38:22;;;;;;;1.70;0.60;;;22.40;96.60;;;22.10;72.48;100883.53;4168693;28;20029;-61
2022/08/03 15:40:23;;;;;;;2.03;0.77;;;22.40;96.70;;;22.08;72.77;100883.75;4168567;28;20113;-62
2022/08/03 15:42:24;;;;;;;1.45;0.73;;;22.40;96.80;;;22.10;72.88;100883.53;4168360;28;20416;-61
2022/08/03 15:44:24;;;;;;;1.70;0.68;;;22.40;96.80;;;22.09;72.89;100887.25;4168112;28;20033;-61
2022/08/03 15:46:25;;;;;;;2.20;0.60;;;22.40;96.80;;;22.09;73.12;100884.56;4162065;28;20042;-61
2022/08/03 15:48:26;;;;;;;1.40;0.60;;;22.40;96.90;;;22.08;73.32;100883.75;4160559;28;20472;-61
2022/08/03 15:50:27;;;;;;;1.25;0.60;;;22.40;96.90;;;22.09;73.39;100887.25;4167475;28;20032;-61
2022/08/03 15:52:28;;;;;;;0.70;0.50;;;22.40;96.90;;;22.07;73.40;100873.25;4168262;28;20060;-61
2022/08/03 15:54:29;;;;;;;1.65;0.50;;;22.40;97.00;;;22.07;73.50;100870.56;4168188;28;20490;-61
2022/08/03 15:56:30;;;;;;;2.25;0.55;;;22.40;97.00;;;22.08;73.51;100870.31;4168905;28;20066;-60
2022/08/03 15:58:30;;;;;;;5.15;0.80;;;22.30;97.00;;;22.07;73.74;100865.19;4168211;28;20068;-61
2022/08/03 16:00:31;;;;;;;2.22;0.70;;;22.40;97.10;;;22.07;73.76;100878.63;4168235;28;20029;-60
2022/08/03 16:02:32;;;;;;;1.13;0.60;;;22.30;97.10;;;22.05;73.84;100863.53;4168664;28;20029;-61
2022/08/03 16:04:33;;;;;;;1.55;0.55;;;22.30;97.10;;;22.08;74.02;100866.81;4166428;28;20033;-61
2022/08/03 16:06:34;;;;;;;1.10;0.60;;;22.30;97.10;;;22.04;73.98;100869.94;4168201;28;20033;-60
2022/08/03 16:08:35;;;;;;;1.50;0.40;;;22.30;97.20;;;22.05;74.08;100860.84;4168384;28;20056;-61
2022/08/03 16:10:36;;;;;;;1.15;0.55;;;22.30;97.20;;;22.06;74.24;100867.03;4168046;28;20037;-61
2022/08/03 16:12:37;;;;;;;1.88;0.60;;;22.30;97.20;;;22.07;74.26;100865.19;4167890;28;20025;-61
2022/08/03 16:14:38;;;;;;;1.40;0.70;;;22.30;97.30;;;22.05;74.39;100868.91;4167994;28;20151;-61
2022/08/03 16:16:39;;;;;;;1.55;0.60;;;22.30;97.30;;;22.05;74.50;100868.91;4167712;28;20439;-61
2022/08/03 16:18:41;;;;;;;0.73;0.50;;;22.30;97.30;;;22.05;74.50;100863.53;4167715;28;20060;-62
2022/08/03 16:20:43;;;;;;;0.80;0.50;;;22.30;97.30;;;22.04;74.45;100864.56;4167716;28;20025;-61
2022/08/03 16:22:47;;;;;;;1.35;0.68;;;22.30;97.30;;;22.05;74.52;100863.53;4167941;28;20059;-62
2022/08/03 16:24:48;;;;;;;1.25;0.52;;;22.30;97.30;;;22.04;74.65;100861.88;4167856;28;20021;-61
2022/08/03 16:26:49;;;;;;;3.33;0.65;;;22.30;97.40;;;22.04;74.60;100866.47;4167785;28;20554;-60
2022/08/03 16:28:49;;;;;;;2.60;0.70;;;22.40;97.40;;;22.05;74.71;100866.22;4167849;28;20046;-60
2022/08/03 16:30:50;;;;;;;2.72;0.47;;;22.30;97.40;;;22.04;74.83;100861.88;4167955;28;20063;-62
2022/08/03 16:32:51;;;;;;;0.57;0.38;;;22.30;97.40;;;22.05;74.91;100857.34;4167595;28;20143;-60
2022/08/03 16:34:52;;;;;;;1.02;0.63;;;22.30;97.50;;;22.03;74.91;100854.06;4167836;28;20450;-61
2022/08/03 16:36:53;;;;;;;0.90;0.50;;;22.30;97.40;;;22.05;74.95;100849.28;4167844;28;20032;-61
2022/08/03 16:38:54;;;;;;;0.80;0.55;;;22.30;97.50;;;22.06;75.06;100856.28;4167687;28;20452;-61
2022/08/03 16:40:55;;;;;;;1.10;0.50;;;22.30;97.50;;;22.04;75.10;100858.41;4167718;28;20029;-61
2022/08/03 16:42:56;;;;;;;2.13;0.93;;;22.30;97.50;;;22.05;75.08;100854.66;4167305;28;20036;-62
2022/08/03 16:44:57;;;;;;;0.88;0.50;;;22.30;97.50;;;22.04;75.11;100853.81;4167382;28;20057;-61
2022/08/03 16:46:58;;;;;;;0.70;0.50;;;22.30;97.50;;;22.04;75.29;100858.41;4167580;28;20477;-61
2022/08/03 16:49:00;;;;;;;1.67;0.65;;;22.30;97.60;;;22.05;75.35;100862.72;4167345;28;20116;-61
2022/08/03 16:51:01;;;;;;;1.20;0.70;;;22.30;97.60;;;22.05;75.28;100857.34;4167999;28;20079;-61
2022/08/03 16:53:10;;;;;;;1.15;0.50;;;22.30;97.60;;;22.01;75.20;100848.09;4167726;28;20473;-61
2022/08/03 16:55:13;;;;;;;1.08;0.50;;;22.30;97.60;;;22.03;75.43;100857.56;4167156;28;20029;-62
2022/08/03 16:57:14;;;;;;;0.82;0.43;;;22.30;97.90;;;22.03;75.51;100860.25;4167426;28;20033;-61
2022/08/03 16:59:15;;;;;;;2.05;0.52;;;22.30;97.60;;;22.02;75.67;100855.94;4167435;28;20025;-61
2022/08/03 17:01:16;;;;;;;1.65;0.60;;;22.30;97.70;;;22.03;75.59;100865.63;4167569;28;20075;-61
2022/08/03 17:03:20;;;;;;;1.45;0.60;;;22.30;97.70;;;22.02;75.75;100858.63;4167094;28;20030;-61
2022/08/03 17:05:21;;;;;;;1.27;0.50;;;22.30;97.70;;;22.03;75.73;100864.81;4167206;28;20095;-60
2022/08/03 17:07:23;;;;;;;1.00;0.40;;;22.30;97.70;;;22.03;75.79;100871.00;4167494;28;20034;-62
2022/08/03 17:09:23;;;;;;;1.05;0.50;;;22.30;97.70;;;22.01;75.87;100866.91;4167014;28;20026;-61
2022/08/03 17:11:24;;;;;;;1.95;0.50;;;22.30;97.70;;;22.02;75.86;100873.91;4166841;28;20488;-61
2022/08/03 17:13:25;;;;;;;1.92;0.90;;;22.30;97.80;;;21.99;75.83;100867.13;4167196;28;20022;-62
2022/08/03 17:15:28;;;;;;;1.05;0.50;;;22.30;97.80;;;22.03;75.84;100875.56;4167442;28;20039;-61
2022/08/03 17:17:34;;;;;;;2.28;0.77;;;22.30;97.80;;;22.02;75.86;100873.91;4166086;28;20064;-62
2022/08/03 17:19:39;;;;;;;0.75;0.38;;;22.30;97.80;;;22.02;75.84;100880.09;4165795;28;20025;-62
2022/08/03 17:21:48;;;;;;;1.00;0.50;;;22.30;97.80;;;22.03;75.88;100880.94;4166216;28;20029;-61
2022/08/03 17:24:07;;;;;;;1.05;0.47;;;22.30;97.80;;;22.01;75.86;100870.41;4156942;28;20076;-62
2022/08/03 17:26:13;;;;;;;1.17;0.60;;;22.30;97.80;;;22.02;75.92;100869.34;4166437;28;20932;-62
2022/08/03 17:28:14;;;;;;;1.15;0.63;;;22.30;97.80;;;22.03;75.95;100875.56;4165416;28;20077;-61
2022/08/03 17:30:16;;;;;;;0.88;0.55;;;22.30;97.80;;;22.04;75.95;100877.22;4167437;28;20022;-61
